sensor_id;sensor_type;location;lat;lon;timestamp;P1;durP1;ratioP1;P2;durP2;ratioP2
6356;SDS011;3211;53.452;-2.264;2022-08-19T00:02:13;4.57;;;2.00;;
6356;SDS011;3211;53.452;-2.264;2022-08-19T00:04:54;10.07;;;2.50;;
6356;SDS011;3211;53.452;-2.264;2022-08-19T00:07:36;7.70;;;2.60;;
6356;SDS011;3211;53.452;-2.264;2022-08-19T00:10:19;8.60;;;2.70;;
6356;SDS011;3211;53.452;-2.264;2022-08-19T00:13:01;5.27;;;2.30;;
6356;SDS011;3211;53.452;-2.264;2022-08-19T00:15:44;4.40;;;2.00;;
6356;SDS011;3211;53.452;-2.264;2022-08-19T00:18:27;6.50;;;2.80;;
6356;SDS011;3211;53.452;-2.264;2022-08-19T00:21:09;10.70;;;1.97;;
6356;SDS011;3211;53.452;-2.264;2022-08-19T00:23:51;9.47;;;2.87;;
6356;SDS011;3211;53.452;-2.264;2022-08-19T00:26:33;5.13;;;2.30;;
6356;SDS011;3211;53.452;-2.264;2022-08-19T00:29:18;6.53;;;2.40;;
6356;SDS011;3211;53.452;-2.264;2022-08-19T00:32:01;8.80;;;2.43;;
6356;SDS011;3211;53.452;-2.264;2022-08-19T00:34:45;5.00;;;1.90;;
6356;SDS011;3211;53.452;-2.264;2022-08-19T00:37:27;7.90;;;2.43;;
6356;SDS011;3211;53.452;-2.264;2022-08-19T00:40:10;7.93;;;2.20;;
6356;SDS011;3211;53.452;-2.264;2022-08-19T00:42:53;8.40;;;3.10;;
6356;SDS011;3211;53.452;-2.264;2022-08-19T00:45:35;6.90;;;2.60;;
6356;SDS011;3211;53.452;-2.264;2022-08-19T00:48:17;5.60;;;2.40;;
6356;SDS011;3211;53.452;-2.264;2022-08-19T00:51:00;9.23;;;2.70;;
6356;SDS011;3211;53.452;-2.264;2022-08-19T00:53:43;11.43;;;2.67;;
6356;SDS011;3211;53.452;-2.264;2022-08-19T00:56:25;6.33;;;2.97;;
6356;SDS011;3211;53.452;-2.264;2022-08-19T00:59:07;6.47;;;2.50;;
6356;SDS011;3211;53.452;-2.264;2022-08-19T01:01:50;8.10;;;2.70;;
6356;SDS011;3211;53.452;-2.264;2022-08-19T01:04:33;14.07;;;3.40;;
6356;SDS011;3211;53.452;-2.264;2022-08-19T01:07:17;8.50;;;2.97;;
6356;SDS011;3211;53.452;-2.264;2022-08-19T01:09:59;10.50;;;2.67;;
6356;SDS011;3211;53.452;-2.264;2022-08-19T01:12:41;11.33;;;2.60;;
6356;SDS011;3211;53.452;-2.264;2022-08-19T01:15:24;7.00;;;2.47;;
6356;SDS011;3211;53.452;-2.264;2022-08-19T01:18:11;5.13;;;2.00;;
6356;SDS011;3211;53.452;-2.264;2022-08-19T01:20:57;12.43;;;2.87;;
6356;SDS011;3211;53.452;-2.264;2022-08-19T01:23:44;8.77;;;2.73;;
6356;SDS011;3211;53.452;-2.264;2022-08-19T01:26:26;8.80;;;2.57;;
6356;SDS011;3211;53.452;-2.264;2022-08-19T01:29:08;8.77;;;3.17;;
6356;SDS011;3211;53.452;-2.264;2022-08-19T01:31:50;8.10;;;2.10;;
6356;SDS011;3211;53.452;-2.264;2022-08-19T01:34:33;9.47;;;2.53;;
6356;SDS011;3211;53.452;-2.264;2022-08-19T01:37:15;8.13;;;2.43;;
6356;SDS011;3211;53.452;-2.264;2022-08-19T01:39:59;7.50;;;2.70;;
6356;SDS011;3211;53.452;-2.264;2022-08-19T01:42:41;8.83;;;2.40;;
6356;SDS011;3211;53.452;-2.264;2022-08-19T01:45:24;14.10;;;2.93;;
6356;SDS011;3211;53.452;-2.264;2022-08-19T01:48:08;9.20;;;2.13;;
6356;SDS011;3211;53.452;-2.264;2022-08-19T01:50:50;12.53;;;3.13;;
6356;SDS011;3211;53.452;-2.264;2022-08-19T01:53:32;12.27;;;2.80;;
6356;SDS011;3211;53.452;-2.264;2022-08-19T01:56:16;8.83;;;2.10;;
6356;SDS011;3211;53.452;-2.264;2022-08-19T01:58:59;12.50;;;2.57;;
6356;SDS011;3211;53.452;-2.264;2022-08-19T02:01:43;9.40;;;2.37;;
6356;SDS011;3211;53.452;-2.264;2022-08-19T02:04:25;8.20;;;2.40;;
6356;SDS011;3211;53.452;-2.264;2022-08-19T02:07:07;10.20;;;4.37;;
6356;SDS011;3211;53.452;-2.264;2022-08-19T02:09:49;8.43;;;2.33;;
6356;SDS011;3211;53.452;-2.264;2022-08-19T02:12:32;8.97;;;2.30;;
6356;SDS011;3211;53.452;-2.264;2022-08-19T02:15:15;15.43;;;2.60;;
6356;SDS011;3211;53.452;-2.264;2022-08-19T02:17:58;12.37;;;2.80;;
6356;SDS011;3211;53.452;-2.264;2022-08-19T02:20:41;6.67;;;2.87;;
6356;SDS011;3211;53.452;-2.264;2022-08-19T02:23:23;6.87;;;2.40;;
6356;SDS011;3211;53.452;-2.264;2022-08-19T02:26:05;6.90;;;2.50;;
6356;SDS011;3211;53.452;-2.264;2022-08-19T02:28:49;8.50;;;2.33;;
6356;SDS011;3211;53.452;-2.264;2022-08-19T02:31:31;10.60;;;2.40;;
6356;SDS011;3211;53.452;-2.264;2022-08-19T02:34:13;5.83;;;2.53;;
6356;SDS011;3211;53.452;-2.264;2022-08-19T02:36:55;15.73;;;3.33;;
6356;SDS011;3211;53.452;-2.264;2022-08-19T02:39:37;9.60;;;2.43;;
6356;SDS011;3211;53.452;-2.264;2022-08-19T02:42:18;6.33;;;2.10;;
6356;SDS011;3211;53.452;-2.264;2022-08-19T02:45:02;7.50;;;2.40;;
6356;SDS011;3211;53.452;-2.264;2022-08-19T02:47:45;11.53;;;3.00;;
6356;SDS011;3211;53.452;-2.264;2022-08-19T02:50:27;21.40;;;2.60;;
6356;SDS011;3211;53.452;-2.264;2022-08-19T02:53:09;9.73;;;3.10;;
6356;SDS011;3211;53.452;-2.264;2022-08-19T02:55:52;9.40;;;2.60;;
6356;SDS011;3211;53.452;-2.264;2022-08-19T02:58:34;9.53;;;2.43;;
6356;SDS011;3211;53.452;-2.264;2022-08-19T03:01:21;10.37;;;3.40;;
6356;SDS011;3211;53.452;-2.264;2022-08-19T03:04:04;7.67;;;2.30;;
6356;SDS011;3211;53.452;-2.264;2022-08-19T03:06:49;10.63;;;3.00;;
6356;SDS011;3211;53.452;-2.264;2022-08-19T03:09:31;9.13;;;2.80;;
6356;SDS011;3211;53.452;-2.264;2022-08-19T03:12:13;11.93;;;2.33;;
6356;SDS011;3211;53.452;-2.264;2022-08-19T03:14:55;9.70;;;2.97;;
6356;SDS011;3211;53.452;-2.264;2022-08-19T03:17:38;6.23;;;2.67;;
6356;SDS011;3211;53.452;-2.264;2022-08-19T03:20:20;9.47;;;2.40;;
6356;SDS011;3211;53.452;-2.264;2022-08-19T03:23:05;12.27;;;2.40;;
6356;SDS011;3211;53.452;-2.264;2022-08-19T03:25:48;7.73;;;2.30;;
6356;SDS011;3211;53.452;-2.264;2022-08-19T03:28:33;10.83;;;2.40;;
6356;SDS011;3211;53.452;-2.264;2022-08-19T03:31:17;11.27;;;2.73;;
6356;SDS011;3211;53.452;-2.264;2022-08-19T03:34:02;7.40;;;2.10;;
6356;SDS011;3211;53.452;-2.264;2022-08-19T03:36:44;13.70;;;3.13;;
6356;SDS011;3211;53.452;-2.264;2022-08-19T03:39:27;8.13;;;2.40;;
6356;SDS011;3211;53.452;-2.264;2022-08-19T03:42:09;6.83;;;2.20;;
6356;SDS011;3211;53.452;-2.264;2022-08-19T03:44:52;6.60;;;2.03;;
6356;SDS011;3211;53.452;-2.264;2022-08-19T03:47:34;12.20;;;3.17;;
6356;SDS011;3211;53.452;-2.264;2022-08-19T03:50:18;15.40;;;2.67;;
6356;SDS011;3211;53.452;-2.264;2022-08-19T03:53:00;5.10;;;2.50;;
6356;SDS011;3211;53.452;-2.264;2022-08-19T03:55:42;12.10;;;2.77;;
6356;SDS011;3211;53.452;-2.264;2022-08-19T03:58:24;6.77;;;1.97;;
6356;SDS011;3211;53.452;-2.264;2022-08-19T04:01:08;12.23;;;2.37;;
6356;SDS011;3211;53.452;-2.264;2022-08-19T04:03:50;9.53;;;3.03;;
6356;SDS011;3211;53.452;-2.264;2022-08-19T04:06:35;8.17;;;2.43;;
6356;SDS011;3211;53.452;-2.264;2022-08-19T04:09:18;12.40;;;3.00;;
6356;SDS011;3211;53.452;-2.264;2022-08-19T04:12:02;10.63;;;2.63;;
6356;SDS011;3211;53.452;-2.264;2022-08-19T04:14:45;7.40;;;2.30;;
6356;SDS011;3211;53.452;-2.264;2022-08-19T04:17:27;7.27;;;2.80;;
6356;SDS011;3211;53.452;-2.264;2022-08-19T04:20:09;9.03;;;2.63;;
6356;SDS011;3211;53.452;-2.264;2022-08-19T04:22:53;12.20;;;3.27;;
6356;SDS011;3211;53.452;-2.264;2022-08-19T04:25:36;9.70;;;2.50;;
6356;SDS011;3211;53.452;-2.264;2022-08-19T04:28:19;8.23;;;3.33;;
6356;SDS011;3211;53.452;-2.264;2022-08-19T04:31:01;18.33;;;3.80;;
6356;SDS011;3211;53.452;-2.264;2022-08-19T04:33:43;10.37;;;2.13;;
6356;SDS011;3211;53.452;-2.264;2022-08-19T04:36:27;7.90;;;2.57;;
6356;SDS011;3211;53.452;-2.264;2022-08-19T04:39:14;7.47;;;2.60;;
6356;SDS011;3211;53.452;-2.264;2022-08-19T04:41:57;10.43;;;2.40;;
6356;SDS011;3211;53.452;-2.264;2022-08-19T04:44:56;7.40;;;2.30;;
6356;SDS011;3211;53.452;-2.264;2022-08-19T04:47:40;15.63;;;2.43;;
6356;SDS011;3211;53.452;-2.264;2022-08-19T04:50:24;8.40;;;2.70;;
6356;SDS011;3211;53.452;-2.264;2022-08-19T04:53:06;6.10;;;2.17;;
6356;SDS011;3211;53.452;-2.264;2022-08-19T04:55:50;5.80;;;2.00;;
6356;SDS011;3211;53.452;-2.264;2022-08-19T04:58:32;7.57;;;2.60;;
6356;SDS011;3211;53.452;-2.264;2022-08-19T05:01:17;11.70;;;2.30;;
6356;SDS011;3211;53.452;-2.264;2022-08-19T05:04:00;6.07;;;2.53;;
6356;SDS011;3211;53.452;-2.264;2022-08-19T05:06:43;5.50;;;2.10;;
6356;SDS011;3211;53.452;-2.264;2022-08-19T05:09:25;6.83;;;2.13;;
6356;SDS011;3211;53.452;-2.264;2022-08-19T05:12:09;6.63;;;2.50;;
6356;SDS011;3211;53.452;-2.264;2022-08-19T05:14:51;9.30;;;2.30;;
6356;SDS011;3211;53.452;-2.264;2022-08-19T05:17:33;10.20;;;2.50;;
6356;SDS011;3211;53.452;-2.264;2022-08-19T05:20:14;7.67;;;2.60;;
6356;SDS011;3211;53.452;-2.264;2022-08-19T05:23:14;9.30;;;2.60;;
6356;SDS011;3211;53.452;-2.264;2022-08-19T05:25:57;9.67;;;3.10;;
6356;SDS011;3211;53.452;-2.264;2022-08-19T05:28:40;7.17;;;2.67;;
6356;SDS011;3211;53.452;-2.264;2022-08-19T05:31:22;10.17;;;3.00;;
6356;SDS011;3211;53.452;-2.264;2022-08-19T05:34:04;15.10;;;2.90;;
6356;SDS011;3211;53.452;-2.264;2022-08-19T05:36:47;7.77;;;2.63;;
6356;SDS011;3211;53.452;-2.264;2022-08-19T05:39:31;9.60;;;2.70;;
6356;SDS011;3211;53.452;-2.264;2022-08-19T05:42:15;9.83;;;2.60;;
6356;SDS011;3211;53.452;-2.264;2022-08-19T05:44:58;9.10;;;2.60;;
6356;SDS011;3211;53.452;-2.264;2022-08-19T05:47:40;9.00;;;2.63;;
6356;SDS011;3211;53.452;-2.264;2022-08-19T05:50:22;9.73;;;2.87;;
6356;SDS011;3211;53.452;-2.264;2022-08-19T05:53:05;6.30;;;2.30;;
6356;SDS011;3211;53.452;-2.264;2022-08-19T05:55:48;16.57;;;2.47;;
6356;SDS011;3211;53.452;-2.264;2022-08-19T05:58:30;7.93;;;2.70;;
6356;SDS011;3211;53.452;-2.264;2022-08-19T06:01:15;9.80;;;2.60;;
6356;SDS011;3211;53.452;-2.264;2022-08-19T06:03:58;6.20;;;2.37;;
6356;SDS011;3211;53.452;-2.264;2022-08-19T06:06:40;14.47;;;3.70;;
6356;SDS011;3211;53.452;-2.264;2022-08-19T06:09:22;12.70;;;3.20;;
6356;SDS011;3211;53.452;-2.264;2022-08-19T06:12:04;12.53;;;2.70;;
6356;SDS011;3211;53.452;-2.264;2022-08-19T06:14:47;5.40;;;2.13;;
6356;SDS011;3211;53.452;-2.264;2022-08-19T06:17:34;11.87;;;2.87;;
6356;SDS011;3211;53.452;-2.264;2022-08-19T06:20:16;11.57;;;2.40;;
6356;SDS011;3211;53.452;-2.264;2022-08-19T06:22:59;7.97;;;2.40;;
6356;SDS011;3211;53.452;-2.264;2022-08-19T06:25:41;9.07;;;2.57;;
6356;SDS011;3211;53.452;-2.264;2022-08-19T06:28:23;6.33;;;2.80;;
6356;SDS011;3211;53.452;-2.264;2022-08-19T06:31:05;9.67;;;2.60;;
6356;SDS011;3211;53.452;-2.264;2022-08-19T06:33:49;12.07;;;2.87;;
6356;SDS011;3211;53.452;-2.264;2022-08-19T06:36:33;7.47;;;2.60;;
6356;SDS011;3211;53.452;-2.264;2022-08-19T06:39:16;10.07;;;2.23;;
6356;SDS011;3211;53.452;-2.264;2022-08-19T06:42:00;7.67;;;2.37;;
6356;SDS011;3211;53.452;-2.264;2022-08-19T06:44:46;7.53;;;2.57;;
6356;SDS011;3211;53.452;-2.264;2022-08-19T06:47:29;10.83;;;3.53;;
6356;SDS011;3211;53.452;-2.264;2022-08-19T06:50:13;12.93;;;2.60;;
6356;SDS011;3211;53.452;-2.264;2022-08-19T06:52:55;11.97;;;3.03;;
6356;SDS011;3211;53.452;-2.264;2022-08-19T06:55:37;10.03;;;3.10;;
6356;SDS011;3211;53.452;-2.264;2022-08-19T06:58:20;11.60;;;2.87;;
6356;SDS011;3211;53.452;-2.264;2022-08-19T07:01:02;10.43;;;3.37;;
6356;SDS011;3211;53.452;-2.264;2022-08-19T07:03:45;9.07;;;2.63;;
6356;SDS011;3211;53.452;-2.264;2022-08-19T07:06:29;6.17;;;2.10;;
6356;SDS011;3211;53.452;-2.264;2022-08-19T07:09:11;13.47;;;4.10;;
6356;SDS011;3211;53.452;-2.264;2022-08-19T07:11:55;9.27;;;2.93;;
6356;SDS011;3211;53.452;-2.264;2022-08-19T07:14:37;15.30;;;3.60;;
6356;SDS011;3211;53.452;-2.264;2022-08-19T07:17:20;11.90;;;4.50;;
6356;SDS011;3211;53.452;-2.264;2022-08-19T07:20:02;8.53;;;2.30;;
6356;SDS011;3211;53.452;-2.264;2022-08-19T07:22:48;7.57;;;2.40;;
6356;SDS011;3211;53.452;-2.264;2022-08-19T07:25:32;11.50;;;2.40;;
6356;SDS011;3211;53.452;-2.264;2022-08-19T07:28:14;9.73;;;2.57;;
6356;SDS011;3211;53.452;-2.264;2022-08-19T07:30:56;13.10;;;2.57;;
6356;SDS011;3211;53.452;-2.264;2022-08-19T07:33:38;11.13;;;2.73;;
6356;SDS011;3211;53.452;-2.264;2022-08-19T07:36:22;12.87;;;2.57;;
6356;SDS011;3211;53.452;-2.264;2022-08-19T07:39:14;7.63;;;2.80;;
6356;SDS011;3211;53.452;-2.264;2022-08-19T07:41:58;15.10;;;3.63;;
6356;SDS011;3211;53.452;-2.264;2022-08-19T07:44:42;12.47;;;2.80;;
6356;SDS011;3211;53.452;-2.264;2022-08-19T07:47:24;7.90;;;2.77;;
6356;SDS011;3211;53.452;-2.264;2022-08-19T07:50:08;15.50;;;2.67;;
6356;SDS011;3211;53.452;-2.264;2022-08-19T07:52:52;11.30;;;2.67;;
6356;SDS011;3211;53.452;-2.264;2022-08-19T07:55:35;7.27;;;2.77;;
6356;SDS011;3211;53.452;-2.264;2022-08-19T07:58:18;9.90;;;3.07;;
6356;SDS011;3211;53.452;-2.264;2022-08-19T08:01:03;6.67;;;2.33;;
6356;SDS011;3211;53.452;-2.264;2022-08-19T08:03:48;6.93;;;2.83;;
6356;SDS011;3211;53.452;-2.264;2022-08-19T08:06:49;8.67;;;3.07;;
6356;SDS011;3211;53.452;-2.264;2022-08-19T08:09:48;6.33;;;2.50;;
6356;SDS011;3211;53.452;-2.264;2022-08-19T08:12:32;11.17;;;2.60;;
6356;SDS011;3211;53.452;-2.264;2022-08-19T08:15:21;13.63;;;2.83;;
6356;SDS011;3211;53.452;-2.264;2022-08-19T08:18:03;10.33;;;2.63;;
6356;SDS011;3211;53.452;-2.264;2022-08-19T08:20:45;8.23;;;3.00;;
6356;SDS011;3211;53.452;-2.264;2022-08-19T08:23:27;5.63;;;2.23;;
6356;SDS011;3211;53.452;-2.264;2022-08-19T08:26:10;7.13;;;2.00;;
6356;SDS011;3211;53.452;-2.264;2022-08-19T08:28:55;5.73;;;2.03;;
6356;SDS011;3211;53.452;-2.264;2022-08-19T08:31:37;8.57;;;2.60;;
6356;SDS011;3211;53.452;-2.264;2022-08-19T08:34:20;8.83;;;2.57;;
6356;SDS011;3211;53.452;-2.264;2022-08-19T08:37:03;12.13;;;3.10;;
6356;SDS011;3211;53.452;-2.264;2022-08-19T08:39:45;11.40;;;2.37;;
6356;SDS011;3211;53.452;-2.264;2022-08-19T08:42:27;9.67;;;2.33;;
6356;SDS011;3211;53.452;-2.264;2022-08-19T08:45:13;13.07;;;2.87;;
6356;SDS011;3211;53.452;-2.264;2022-08-19T08:47:58;9.00;;;2.93;;
6356;SDS011;3211;53.452;-2.264;2022-08-19T08:50:45;7.60;;;2.40;;
6356;SDS011;3211;53.452;-2.264;2022-08-19T08:53:30;8.37;;;2.27;;
6356;SDS011;3211;53.452;-2.264;2022-08-19T08:56:14;10.27;;;2.50;;
6356;SDS011;3211;53.452;-2.264;2022-08-19T08:58:58;13.20;;;2.73;;
6356;SDS011;3211;53.452;-2.264;2022-08-19T09:01:45;14.50;;;2.80;;
6356;SDS011;3211;53.452;-2.264;2022-08-19T09:04:27;6.23;;;2.80;;
6356;SDS011;3211;53.452;-2.264;2022-08-19T09:07:14;9.50;;;2.40;;
6356;SDS011;3211;53.452;-2.264;2022-08-19T09:10:08;8.33;;;2.37;;
6356;SDS011;3211;53.452;-2.264;2022-08-19T09:13:00;7.70;;;2.30;;
6356;SDS011;3211;53.452;-2.264;2022-08-19T09:15:49;13.00;;;2.50;;
6356;SDS011;3211;53.452;-2.264;2022-08-19T09:18:43;9.67;;;2.47;;
6356;SDS011;3211;53.452;-2.264;2022-08-19T09:21:26;8.20;;;2.47;;
6356;SDS011;3211;53.452;-2.264;2022-08-19T09:24:08;5.73;;;2.40;;
6356;SDS011;3211;53.452;-2.264;2022-08-19T09:26:50;3.27;;;2.17;;
6356;SDS011;3211;53.452;-2.264;2022-08-19T09:29:32;12.33;;;2.40;;
6356;SDS011;3211;53.452;-2.264;2022-08-19T09:32:14;7.33;;;2.47;;
6356;SDS011;3211;53.452;-2.264;2022-08-19T09:34:58;6.67;;;2.00;;
6356;SDS011;3211;53.452;-2.264;2022-08-19T09:37:41;8.37;;;1.93;;
6356;SDS011;3211;53.452;-2.264;2022-08-19T09:40:24;6.87;;;2.33;;
6356;SDS011;3211;53.452;-2.264;2022-08-19T09:43:06;8.23;;;2.30;;
6356;SDS011;3211;53.452;-2.264;2022-08-19T09:45:50;6.90;;;2.30;;
6356;SDS011;3211;53.452;-2.264;2022-08-19T09:48:34;10.40;;;2.20;;
6356;SDS011;3211;53.452;-2.264;2022-08-19T09:51:18;7.83;;;2.13;;
6356;SDS011;3211;53.452;-2.264;2022-08-19T09:54:03;4.50;;;2.43;;
6356;SDS011;3211;53.452;-2.264;2022-08-19T09:56:45;5.13;;;2.30;;
6356;SDS011;3211;53.452;-2.264;2022-08-19T09:59:28;5.83;;;1.93;;
6356;SDS011;3211;53.452;-2.264;2022-08-19T10:02:10;10.87;;;2.50;;
6356;SDS011;3211;53.452;-2.264;2022-08-19T10:04:53;3.93;;;1.90;;
6356;SDS011;3211;53.452;-2.264;2022-08-19T10:07:54;4.83;;;1.53;;
6356;SDS011;3211;53.452;-2.264;2022-08-19T10:10:36;5.50;;;2.37;;
6356;SDS011;3211;53.452;-2.264;2022-08-19T10:13:19;4.50;;;1.90;;
6356;SDS011;3211;53.452;-2.264;2022-08-19T10:16:06;9.10;;;2.13;;
6356;SDS011;3211;53.452;-2.264;2022-08-19T10:18:50;8.27;;;2.03;;
6356;SDS011;3211;53.452;-2.264;2022-08-19T10:21:33;8.57;;;2.07;;
6356;SDS011;3211;53.452;-2.264;2022-08-19T10:24:16;6.57;;;2.43;;
6356;SDS011;3211;53.452;-2.264;2022-08-19T10:27:00;7.20;;;2.03;;
6356;SDS011;3211;53.452;-2.264;2022-08-19T10:29:43;11.20;;;3.30;;
6356;SDS011;3211;53.452;-2.264;2022-08-19T10:32:25;5.73;;;1.70;;
6356;SDS011;3211;53.452;-2.264;2022-08-19T10:35:09;7.73;;;2.87;;
6356;SDS011;3211;53.452;-2.264;2022-08-19T10:37:51;3.50;;;1.93;;
6356;SDS011;3211;53.452;-2.264;2022-08-19T10:40:34;4.07;;;2.10;;
6356;SDS011;3211;53.452;-2.264;2022-08-19T10:43:16;3.23;;;1.53;;
6356;SDS011;3211;53.452;-2.264;2022-08-19T10:45:59;4.50;;;1.53;;
6356;SDS011;3211;53.452;-2.264;2022-08-19T10:48:41;4.40;;;1.40;;
6356;SDS011;3211;53.452;-2.264;2022-08-19T10:51:24;9.13;;;2.37;;
6356;SDS011;3211;53.452;-2.264;2022-08-19T10:54:25;3.73;;;1.80;;
6356;SDS011;3211;53.452;-2.264;2022-08-19T10:57:31;5.20;;;1.80;;
6356;SDS011;3211;53.452;-2.264;2022-08-19T11:00:12;2.50;;;1.60;;
6356;SDS011;3211;53.452;-2.264;2022-08-19T11:02:55;4.53;;;1.70;;
6356;SDS011;3211;53.452;-2.264;2022-08-19T11:05:37;9.70;;;1.73;;
6356;SDS011;3211;53.452;-2.264;2022-08-19T11:08:20;5.13;;;1.70;;
6356;SDS011;3211;53.452;-2.264;2022-08-19T11:11:02;1.83;;;1.50;;
6356;SDS011;3211;53.452;-2.264;2022-08-19T11:13:47;4.37;;;1.60;;
6356;SDS011;3211;53.452;-2.264;2022-08-19T11:16:30;6.73;;;1.60;;
6356;SDS011;3211;53.452;-2.264;2022-08-19T11:19:12;5.13;;;1.60;;
6356;SDS011;3211;53.452;-2.264;2022-08-19T11:21:57;1.93;;;1.33;;
6356;SDS011;3211;53.452;-2.264;2022-08-19T11:24:42;3.77;;;1.50;;
6356;SDS011;3211;53.452;-2.264;2022-08-19T11:27:24;2.33;;;1.37;;
6356;SDS011;3211;53.452;-2.264;2022-08-19T11:30:09;4.20;;;1.50;;
6356;SDS011;3211;53.452;-2.264;2022-08-19T11:32:52;6.63;;;1.70;;
6356;SDS011;3211;53.452;-2.264;2022-08-19T11:35:34;2.20;;;1.30;;
6356;SDS011;3211;53.452;-2.264;2022-08-19T11:38:20;3.00;;;1.50;;
6356;SDS011;3211;53.452;-2.264;2022-08-19T11:41:03;3.03;;;1.60;;
6356;SDS011;3211;53.452;-2.264;2022-08-19T11:43:47;4.80;;;1.67;;
6356;SDS011;3211;53.452;-2.264;2022-08-19T11:46:30;3.63;;;1.80;;
6356;SDS011;3211;53.452;-2.264;2022-08-19T11:49:13;2.60;;;1.50;;
6356;SDS011;3211;53.452;-2.264;2022-08-19T11:51:56;3.13;;;1.70;;
6356;SDS011;3211;53.452;-2.264;2022-08-19T11:54:38;3.73;;;1.77;;
6356;SDS011;3211;53.452;-2.264;2022-08-19T11:57:20;5.10;;;1.30;;
6356;SDS011;3211;53.452;-2.264;2022-08-19T12:00:03;5.67;;;1.53;;
6356;SDS011;3211;53.452;-2.264;2022-08-19T12:02:48;1.93;;;1.17;;
6356;SDS011;3211;53.452;-2.264;2022-08-19T12:05:30;4.70;;;1.87;;
6356;SDS011;3211;53.452;-2.264;2022-08-19T12:08:14;4.50;;;1.50;;
6356;SDS011;3211;53.452;-2.264;2022-08-19T12:10:56;2.80;;;1.20;;
6356;SDS011;3211;53.452;-2.264;2022-08-19T12:13:38;3.87;;;1.60;;
6356;SDS011;3211;53.452;-2.264;2022-08-19T12:16:22;2.07;;;1.40;;
6356;SDS011;3211;53.452;-2.264;2022-08-19T12:19:10;3.07;;;1.87;;
6356;SDS011;3211;53.452;-2.264;2022-08-19T12:21:52;1.83;;;1.30;;
6356;SDS011;3211;53.452;-2.264;2022-08-19T12:24:40;3.40;;;1.53;;
6356;SDS011;3211;53.452;-2.264;2022-08-19T12:27:23;2.73;;;1.67;;
6356;SDS011;3211;53.452;-2.264;2022-08-19T12:30:06;3.63;;;1.63;;
6356;SDS011;3211;53.452;-2.264;2022-08-19T12:32:50;2.57;;;1.27;;
6356;SDS011;3211;53.452;-2.264;2022-08-19T12:35:33;6.73;;;1.73;;
6356;SDS011;3211;53.452;-2.264;2022-08-19T12:38:16;5.23;;;1.50;;
6356;SDS011;3211;53.452;-2.264;2022-08-19T12:40:59;4.37;;;1.60;;
6356;SDS011;3211;53.452;-2.264;2022-08-19T12:43:43;2.77;;;1.33;;
6356;SDS011;3211;53.452;-2.264;2022-08-19T12:46:26;2.07;;;1.20;;
6356;SDS011;3211;53.452;-2.264;2022-08-19T12:49:08;3.13;;;1.30;;
6356;SDS011;3211;53.452;-2.264;2022-08-19T12:51:51;3.77;;;1.30;;
6356;SDS011;3211;53.452;-2.264;2022-08-19T12:54:33;3.80;;;1.87;;
6356;SDS011;3211;53.452;-2.264;2022-08-19T12:57:15;2.33;;;1.37;;
6356;SDS011;3211;53.452;-2.264;2022-08-19T12:59:57;4.60;;;1.50;;
6356;SDS011;3211;53.452;-2.264;2022-08-19T13:02:40;6.03;;;1.60;;
6356;SDS011;3211;53.452;-2.264;2022-08-19T13:05:27;2.10;;;1.20;;
6356;SDS011;3211;53.452;-2.264;2022-08-19T13:08:12;5.67;;;1.47;;
6356;SDS011;3211;53.452;-2.264;2022-08-19T13:10:55;3.37;;;1.40;;
6356;SDS011;3211;53.452;-2.264;2022-08-19T13:13:39;4.30;;;1.77;;
6356;SDS011;3211;53.452;-2.264;2022-08-19T13:16:21;3.47;;;1.17;;
6356;SDS011;3211;53.452;-2.264;2022-08-19T13:19:03;3.70;;;1.20;;
6356;SDS011;3211;53.452;-2.264;2022-08-19T13:21:45;2.13;;;1.23;;
6356;SDS011;3211;53.452;-2.264;2022-08-19T13:24:32;2.60;;;1.10;;
6356;SDS011;3211;53.452;-2.264;2022-08-19T13:27:16;1.70;;;1.20;;
6356;SDS011;3211;53.452;-2.264;2022-08-19T13:29:58;2.17;;;1.20;;
6356;SDS011;3211;53.452;-2.264;2022-08-19T13:32:58;2.90;;;1.23;;
6356;SDS011;3211;53.452;-2.264;2022-08-19T13:35:56;2.40;;;1.10;;
6356;SDS011;3211;53.452;-2.264;2022-08-19T13:38:40;7.60;;;1.67;;
6356;SDS011;3211;53.452;-2.264;2022-08-19T13:41:23;4.70;;;1.40;;
6356;SDS011;3211;53.452;-2.264;2022-08-19T13:44:05;1.60;;;1.10;;
6356;SDS011;3211;53.452;-2.264;2022-08-19T13:46:48;2.10;;;1.40;;
6356;SDS011;3211;53.452;-2.264;2022-08-19T13:49:32;3.67;;;1.60;;
6356;SDS011;3211;53.452;-2.264;2022-08-19T13:52:15;2.50;;;1.53;;
6356;SDS011;3211;53.452;-2.264;2022-08-19T13:54:58;2.17;;;1.70;;
6356;SDS011;3211;53.452;-2.264;2022-08-19T13:57:41;2.70;;;1.13;;
6356;SDS011;3211;53.452;-2.264;2022-08-19T14:00:24;2.17;;;1.33;;
6356;SDS011;3211;53.452;-2.264;2022-08-19T14:03:07;3.40;;;1.67;;
6356;SDS011;3211;53.452;-2.264;2022-08-19T14:05:49;2.10;;;1.20;;
6356;SDS011;3211;53.452;-2.264;2022-08-19T14:08:32;2.57;;;1.83;;
6356;SDS011;3211;53.452;-2.264;2022-08-19T14:11:14;4.37;;;1.63;;
6356;SDS011;3211;53.452;-2.264;2022-08-19T14:13:58;28.47;;;13.77;;
6356;SDS011;3211;53.452;-2.264;2022-08-19T14:16:40;33.57;;;13.83;;
6356;SDS011;3211;53.452;-2.264;2022-08-19T14:19:22;20.87;;;10.90;;
6356;SDS011;3211;53.452;-2.264;2022-08-19T14:22:04;31.80;;;13.83;;
6356;SDS011;3211;53.452;-2.264;2022-08-19T14:24:46;6.17;;;2.87;;
6356;SDS011;3211;53.452;-2.264;2022-08-19T14:27:29;3.93;;;1.50;;
6356;SDS011;3211;53.452;-2.264;2022-08-19T14:30:14;7.03;;;1.20;;
6356;SDS011;3211;53.452;-2.264;2022-08-19T14:32:59;2.70;;;1.53;;
6356;SDS011;3211;53.452;-2.264;2022-08-19T14:35:42;4.17;;;1.83;;
6356;SDS011;3211;53.452;-2.264;2022-08-19T14:38:24;2.00;;;1.53;;
6356;SDS011;3211;53.452;-2.264;2022-08-19T14:41:08;2.50;;;1.57;;
6356;SDS011;3211;53.452;-2.264;2022-08-19T14:43:52;2.87;;;1.40;;
6356;SDS011;3211;53.452;-2.264;2022-08-19T14:46:36;3.70;;;1.30;;
6356;SDS011;3211;53.452;-2.264;2022-08-19T14:49:18;4.53;;;1.63;;
6356;SDS011;3211;53.452;-2.264;2022-08-19T14:52:00;2.47;;;1.20;;
6356;SDS011;3211;53.452;-2.264;2022-08-19T14:54:42;3.50;;;1.23;;
6356;SDS011;3211;53.452;-2.264;2022-08-19T14:57:24;3.63;;;1.00;;
6356;SDS011;3211;53.452;-2.264;2022-08-19T15:00:07;4.07;;;1.70;;
6356;SDS011;3211;53.452;-2.264;2022-08-19T15:02:54;3.97;;;1.20;;
6356;SDS011;3211;53.452;-2.264;2022-08-19T15:05:36;2.20;;;1.30;;
6356;SDS011;3211;53.452;-2.264;2022-08-19T15:08:18;4.63;;;1.20;;
6356;SDS011;3211;53.452;-2.264;2022-08-19T15:11:07;2.80;;;1.20;;
6356;SDS011;3211;53.452;-2.264;2022-08-19T15:13:50;3.83;;;1.97;;
6356;SDS011;3211;53.452;-2.264;2022-08-19T15:16:32;2.13;;;1.10;;
6356;SDS011;3211;53.452;-2.264;2022-08-19T15:19:16;1.97;;;1.40;;
6356;SDS011;3211;53.452;-2.264;2022-08-19T15:21:58;2.13;;;1.00;;
6356;SDS011;3211;53.452;-2.264;2022-08-19T15:24:40;2.43;;;1.30;;
6356;SDS011;3211;53.452;-2.264;2022-08-19T15:27:25;3.53;;;1.50;;
6356;SDS011;3211;53.452;-2.264;2022-08-19T15:30:08;4.80;;;1.60;;
6356;SDS011;3211;53.452;-2.264;2022-08-19T15:32:51;3.87;;;1.47;;
6356;SDS011;3211;53.452;-2.264;2022-08-19T15:35:36;2.23;;;1.40;;
6356;SDS011;3211;53.452;-2.264;2022-08-19T15:38:19;4.10;;;1.33;;
6356;SDS011;3211;53.452;-2.264;2022-08-19T15:41:03;3.13;;;1.30;;
6356;SDS011;3211;53.452;-2.264;2022-08-19T15:44:00;3.70;;;1.37;;
6356;SDS011;3211;53.452;-2.264;2022-08-19T15:46:47;2.57;;;1.17;;
6356;SDS011;3211;53.452;-2.264;2022-08-19T15:49:29;2.00;;;1.20;;
6356;SDS011;3211;53.452;-2.264;2022-08-19T15:52:12;2.70;;;1.10;;
6356;SDS011;3211;53.452;-2.264;2022-08-19T15:54:54;6.00;;;1.20;;
6356;SDS011;3211;53.452;-2.264;2022-08-19T15:57:36;2.20;;;1.17;;
6356;SDS011;3211;53.452;-2.264;2022-08-19T16:00:36;3.20;;;1.30;;
6356;SDS011;3211;53.452;-2.264;2022-08-19T16:03:37;2.80;;;1.60;;
6356;SDS011;3211;53.452;-2.264;2022-08-19T16:06:37;3.23;;;1.27;;
6356;SDS011;3211;53.452;-2.264;2022-08-19T16:09:22;2.93;;;1.30;;
6356;SDS011;3211;53.452;-2.264;2022-08-19T16:12:08;3.77;;;1.63;;
6356;SDS011;3211;53.452;-2.264;2022-08-19T16:14:49;3.43;;;1.43;;
6356;SDS011;3211;53.452;-2.264;2022-08-19T16:17:32;2.50;;;1.40;;
6356;SDS011;3211;53.452;-2.264;2022-08-19T16:20:14;1.43;;;1.10;;
6356;SDS011;3211;53.452;-2.264;2022-08-19T16:22:59;4.03;;;1.70;;
6356;SDS011;3211;53.452;-2.264;2022-08-19T16:25:44;3.83;;;1.30;;
6356;SDS011;3211;53.452;-2.264;2022-08-19T16:28:26;4.00;;;1.37;;
6356;SDS011;3211;53.452;-2.264;2022-08-19T16:31:08;3.10;;;1.50;;
6356;SDS011;3211;53.452;-2.264;2022-08-19T16:33:50;2.13;;;1.20;;
6356;SDS011;3211;53.452;-2.264;2022-08-19T16:36:32;2.37;;;1.23;;
6356;SDS011;3211;53.452;-2.264;2022-08-19T16:39:15;3.17;;;1.37;;